Time;durP1;ratioP1;P1;durP2;ratioP2;P2;SDS_P1;SDS_P2;PMS_P1;PMS_P2;Temp;Humidity;BMP_temperature;BMP_pressure;BME280_temperature;BME280_humidity;BME280_pressure;Samples;Min_cycle;Max_cycle;Signal;HPM_P1;HPM_P2
2023/08/06 00:00:26;;;;;;;4.90;2.60;;;;;;;;;;5114306;28;20052;-57
2023/08/06 00:02:53;;;;;;;3.45;2.85;;;;;;;;;;5113894;28;20134;-57
2023/08/06 00:05:21;;;;;;;5.57;4.05;;;;;;;;;;5114053;28;20059;-57
2023/08/06 00:07:47;;;;;;;5.18;3.47;;;;;;;;;;5113031;27;20066;-58
2023/08/06 00:10:15;;;;;;;5.03;3.53;;;;;;;;;;5112969;28;20050;-57
2023/08/06 00:12:42;;;;;;;4.43;3.13;;;;;;;;;;5114209;28;20377;-56
2023/08/06 00:15:10;;;;;;;3.83;2.75;;;;;;;;;;5113587;28;20062;-57
2023/08/06 00:17:37;;;;;;;4.80;2.85;;;;;;;;;;5132348;27;20491;-57
2023/08/06 00:20:06;;;;;;;6.20;3.05;;;;;;;;;;5134272;27;20047;-57
2023/08/06 00:22:33;;;;;;;4.43;2.53;;;;;;;;;;5129415;27;20058;-57
2023/08/06 00:24:59;;;;;;;3.30;2.90;;;;;;;;;;5112779;28;20058;-57
2023/08/06 00:27:26;;;;;;;5.22;2.88;;;;;;;;;;5114062;28;20048;-57
2023/08/06 00:29:53;;;;;;;3.35;2.88;;;;;;;;;;5113998;28;20047;-57
2023/08/06 00:32:21;;;;;;;6.93;2.67;;;;;;;;;;5113562;28;20056;-57
2023/08/06 00:34:49;;;;;;;3.70;2.60;;;;;;;;;;5113677;28;20405;-57
2023/08/06 00:37:16;;;;;;;5.40;3.10;;;;;;;;;;5113812;28;20488;-57
2023/08/06 00:39:43;;;;;;;4.85;2.53;;;;;;;;;;5112752;27;20054;-57
2023/08/06 00:42:10;;;;;;;4.50;2.72;;;;;;;;;;5113592;28;20048;-56
2023/08/06 00:44:37;;;;;;;4.47;2.60;;;;;;;;;;5111873;28;20054;-57
2023/08/06 00:47:04;;;;;;;3.65;2.53;;;;;;;;;;5112010;28;20436;-57
2023/08/06 00:49:32;;;;;;;6.45;2.80;;;;;;;;;;5113605;28;20051;-57
2023/08/06 00:52:00;;;;;;;4.45;2.72;;;;;;;;;;5113599;28;20063;-56
2023/08/06 00:54:28;;;;;;;4.32;3.20;;;;;;;;;;5111153;27;20055;-57
2023/08/06 00:56:55;;;;;;;7.57;2.95;;;;;;;;;;5112953;28;20051;-55
2023/08/06 00:59:22;;;;;;;5.03;2.95;;;;;;;;;;5113149;28;20054;-57
2023/08/06 01:01:50;;;;;;;4.22;2.72;;;;;;;;;;5110478;28;20411;-57
2023/08/06 01:04:16;;;;;;;3.50;2.95;;;;;;;;;;5112588;28;20051;-56
2023/08/06 01:06:47;;;;;;;3.78;2.80;;;;;;;;;;5113756;28;20051;-56
2023/08/06 01:09:22;;;;;;;5.05;3.17;;;;;;;;;;5111698;28;20047;-56
2023/08/06 01:11:55;;;;;;;4.88;2.83;;;;;;;;;;5113273;28;20468;-57
2023/08/06 01:14:24;;;;;;;5.60;3.13;;;;;;;;;;5112981;28;20048;-56
2023/08/06 01:16:52;;;;;;;4.53;3.35;;;;;;;;;;5113199;28;20059;-56
2023/08/06 01:19:19;;;;;;;4.15;2.80;;;;;;;;;;5116584;27;20408;-56
2023/08/06 01:21:47;;;;;;;5.15;3.22;;;;;;;;;;5113431;28;20052;-56
2023/08/06 01:24:14;;;;;;;4.15;2.95;;;;;;;;;;5111226;28;20051;-56
2023/08/06 01:26:43;;;;;;;5.40;3.30;;;;;;;;;;5112753;28;20059;-56
2023/08/06 01:29:16;;;;;;;4.15;2.85;;;;;;;;;;5111781;28;20082;-57
2023/08/06 01:31:44;;;;;;;3.80;2.63;;;;;;;;;;5112415;28;20066;-57
2023/08/06 01:34:14;;;;;;;3.33;3.03;;;;;;;;;;5112732;28;20125;-56
2023/08/06 01:36:41;;;;;;;3.70;2.85;;;;;;;;;;5112687;28;20479;-56
2023/08/06 01:39:10;;;;;;;4.30;3.30;;;;;;;;;;5110335;28;20357;-56
2023/08/06 01:41:36;;;;;;;4.25;3.03;;;;;;;;;;5112534;28;20047;-56
2023/08/06 01:44:03;;;;;;;4.78;3.10;;;;;;;;;;5112083;28;20051;-56
2023/08/06 01:46:30;;;;;;;4.47;3.13;;;;;;;;;;5112923;28;20477;-56
2023/08/06 01:48:57;;;;;;;6.38;3.10;;;;;;;;;;5112505;28;20400;-56
2023/08/06 01:51:24;;;;;;;7.50;3.30;;;;;;;;;;5112416;28;20061;-56
2023/08/06 01:53:50;;;;;;;5.28;2.90;;;;;;;;;;5111138;28;20052;-56
2023/08/06 01:56:18;;;;;;;4.45;2.58;;;;;;;;;;5112566;28;20058;-57
2023/08/06 01:58:45;;;;;;;4.97;3.55;;;;;;;;;;5112559;28;20056;-56
2023/08/06 02:01:12;;;;;;;4.40;3.50;;;;;;;;;;5111811;28;20052;-56
2023/08/06 02:03:39;;;;;;;5.22;3.13;;;;;;;;;;5112853;28;20047;-56
2023/08/06 02:06:05;;;;;;;3.70;3.08;;;;;;;;;;5112373;28;20055;-56
2023/08/06 02:08:32;;;;;;;4.38;3.05;;;;;;;;;;5112431;28;20055;-56
2023/08/06 02:10:59;;;;;;;5.57;3.30;;;;;;;;;;5116377;28;20052;-56
2023/08/06 02:13:27;;;;;;;4.53;3.22;;;;;;;;;;5115952;28;20061;-56
2023/08/06 02:15:54;;;;;;;3.60;2.90;;;;;;;;;;5116118;28;20075;-57
2023/08/06 02:18:21;;;;;;;7.63;3.30;;;;;;;;;;5116101;28;20063;-56
2023/08/06 02:20:55;;;;;;;3.65;2.95;;;;;;;;;;5120346;27;20043;-56
2023/08/06 02:23:22;;;;;;;6.65;3.03;;;;;;;;;;5129181;27;20083;-57
2023/08/06 02:25:49;;;;;;;3.97;3.40;;;;;;;;;;5116337;28;20044;-56
2023/08/06 02:28:16;;;;;;;4.25;2.80;;;;;;;;;;5116251;28;20602;-56
2023/08/06 02:30:51;;;;;;;5.65;3.15;;;;;;;;;;5115391;28;20047;-56
2023/08/06 02:33:18;;;;;;;4.70;3.00;;;;;;;;;;5115723;28;20504;-57
2023/08/06 02:35:45;;;;;;;5.72;3.50;;;;;;;;;;5116033;28;20056;-57
2023/08/06 02:38:11;;;;;;;5.35;3.50;;;;;;;;;;5114572;28;20051;-57
2023/08/06 02:40:43;;;;;;;3.70;3.03;;;;;;;;;;5116073;28;20047;-57
2023/08/06 02:43:10;;;;;;;5.50;2.85;;;;;;;;;;5116028;28;20051;-57
2023/08/06 02:45:37;;;;;;;6.68;3.53;;;;;;;;;;5115703;28;20415;-56
2023/08/06 02:48:06;;;;;;;4.45;3.10;;;;;;;;;;5115688;28;20052;-56
2023/08/06 02:50:38;;;;;;;4.07;3.13;;;;;;;;;;5115847;28;20054;-57
2023/08/06 02:53:05;;;;;;;4.05;3.00;;;;;;;;;;5115009;27;20055;-57
2023/08/06 02:55:31;;;;;;;3.22;2.90;;;;;;;;;;5115485;28;20055;-57
2023/08/06 02:57:58;;;;;;;5.85;3.20;;;;;;;;;;5115619;28;20047;-57
2023/08/06 03:00:25;;;;;;;5.25;3.60;;;;;;;;;;5115210;28;20404;-57
2023/08/06 03:02:52;;;;;;;4.63;3.33;;;;;;;;;;5115454;28;20077;-56
2023/08/06 03:05:20;;;;;;;5.93;3.35;;;;;;;;;;5115053;28;20063;-56
2023/08/06 03:07:47;;;;;;;4.32;2.88;;;;;;;;;;5114803;27;20052;-56
2023/08/06 03:10:17;;;;;;;4.07;3.40;;;;;;;;;;5115649;28;20056;-56
2023/08/06 03:12:43;;;;;;;5.25;3.83;;;;;;;;;;5115715;28;20484;-56
2023/08/06 03:15:10;;;;;;;6.35;3.50;;;;;;;;;;5114142;27;20500;-56
2023/08/06 03:17:37;;;;;;;4.60;3.15;;;;;;;;;;5115008;28;20058;-56
2023/08/06 03:20:04;;;;;;;4.70;3.38;;;;;;;;;;5114790;28;20055;-55
2023/08/06 03:22:33;;;;;;;4.13;3.53;;;;;;;;;;5116861;27;20035;-56
2023/08/06 03:24:59;;;;;;;6.07;3.67;;;;;;;;;;5114962;28;20054;-57
2023/08/06 03:27:26;;;;;;;4.82;3.63;;;;;;;;;;5115329;28;20047;-56
2023/08/06 03:29:53;;;;;;;5.50;3.33;;;;;;;;;;5114875;28;20060;-55
2023/08/06 03:32:20;;;;;;;4.88;3.67;;;;;;;;;;5114344;28;20051;-56
2023/08/06 03:34:46;;;;;;;5.35;3.50;;;;;;;;;;5114830;28;20507;-56
2023/08/06 03:37:13;;;;;;;4.90;3.00;;;;;;;;;;5115260;27;20056;-56
2023/08/06 03:39:41;;;;;;;5.10;3.50;;;;;;;;;;5114616;28;20063;-56
2023/08/06 03:42:08;;;;;;;3.95;3.40;;;;;;;;;;5114812;28;20044;-55
2023/08/06 03:44:35;;;;;;;3.58;3.08;;;;;;;;;;5114537;28;20048;-56
2023/08/06 03:47:02;;;;;;;5.13;3.55;;;;;;;;;;5114665;28;20062;-56
2023/08/06 03:49:28;;;;;;;5.15;3.65;;;;;;;;;;5114700;28;20055;-56
2023/08/06 03:51:55;;;;;;;4.75;3.20;;;;;;;;;;5114174;27;20054;-57
2023/08/06 03:54:22;;;;;;;4.90;3.45;;;;;;;;;;5114459;28;20381;-56
2023/08/06 03:56:50;;;;;;;5.00;3.63;;;;;;;;;;5114302;28;20051;-56
2023/08/06 03:59:17;;;;;;;3.50;2.90;;;;;;;;;;5114384;28;20054;-56
2023/08/06 04:01:44;;;;;;;5.82;3.53;;;;;;;;;;5114231;28;20507;-55
2023/08/06 04:04:10;;;;;;;6.38;3.47;;;;;;;;;;5112366;27;20677;-57
2023/08/06 04:06:37;;;;;;;5.45;3.80;;;;;;;;;;5113705;27;20051;-56
2023/08/06 04:09:04;;;;;;;5.57;3.90;;;;;;;;;;5113949;27;20066;-56
2023/08/06 04:11:31;;;;;;;5.15;3.60;;;;;;;;;;5114180;28;20051;-57
2023/08/06 04:13:59;;;;;;;4.57;3.10;;;;;;;;;;5113973;28;20067;-56
2023/08/06 04:16:27;;;;;;;6.82;3.50;;;;;;;;;;5114153;28;20392;-56
2023/08/06 04:18:55;;;;;;;4.05;3.47;;;;;;;;;;5113767;28;20055;-57
2023/08/06 04:21:22;;;;;;;5.13;3.45;;;;;;;;;;5113645;27;20044;-56
2023/08/06 04:23:48;;;;;;;4.45;3.17;;;;;;;;;;5105025;28;20404;-56
2023/08/06 04:26:15;;;;;;;4.47;3.78;;;;;;;;;;5093594;28;20071;-56
2023/08/06 04:28:42;;;;;;;4.45;3.42;;;;;;;;;;5093079;28;20055;-56
2023/08/06 04:31:10;;;;;;;6.18;3.53;;;;;;;;;;5093186;28;20424;-56
2023/08/06 04:33:37;;;;;;;3.60;2.90;;;;;;;;;;5092340;28;20055;-57
2023/08/06 04:36:04;;;;;;;5.60;3.45;;;;;;;;;;5093437;28;20056;-56
2023/08/06 04:38:31;;;;;;;5.30;3.53;;;;;;;;;;5111840;27;20055;-56
2023/08/06 04:40:57;;;;;;;6.40;3.72;;;;;;;;;;5113608;28;20051;-56
2023/08/06 04:43:25;;;;;;;4.43;3.70;;;;;;;;;;5112957;28;20050;-56
2023/08/06 04:45:53;;;;;;;5.65;4.50;;;;;;;;;;5113515;28;20050;-56
2023/08/06 04:48:21;;;;;;;4.93;4.10;;;;;;;;;;5113400;28;20480;-56
2023/08/06 04:50:48;;;;;;;4.65;4.00;;;;;;;;;;5113361;28;20102;-57
2023/08/06 04:53:15;;;;;;;5.85;3.95;;;;;;;;;;5103205;27;20043;-56
2023/08/06 04:55:42;;;;;;;6.15;3.92;;;;;;;;;;5110995;28;20054;-56
2023/08/06 04:58:10;;;;;;;9.05;4.15;;;;;;;;;;5113383;28;20126;-57
2023/08/06 05:00:37;;;;;;;7.20;4.22;;;;;;;;;;5112755;28;20059;-56
2023/08/06 05:03:04;;;;;;;6.65;3.20;;;;;;;;;;5112633;28;20051;-56
2023/08/06 05:05:32;;;;;;;6.18;3.80;;;;;;;;;;5112990;28;20051;-56
2023/08/06 05:07:58;;;;;;;4.35;3.35;;;;;;;;;;5112401;27;20043;-56
2023/08/06 05:10:26;;;;;;;5.25;3.40;;;;;;;;;;5097272;28;20473;-57
2023/08/06 05:12:52;;;;;;;4.97;3.97;;;;;;;;;;5101944;28;20044;-56
2023/08/06 05:15:19;;;;;;;6.32;3.92;;;;;;;;;;5112756;28;20058;-56
2023/08/06 05:17:46;;;;;;;5.57;3.97;;;;;;;;;;5112902;28;20061;-57
2023/08/06 05:20:13;;;;;;;4.18;3.75;;;;;;;;;;5112848;28;20055;-56
2023/08/06 05:22:41;;;;;;;5.53;3.33;;;;;;;;;;5112528;28;20043;-56
2023/08/06 05:25:08;;;;;;;4.57;3.45;;;;;;;;;;5112745;28;20464;-57
2023/08/06 05:27:35;;;;;;;4.47;3.00;;;;;;;;;;5112814;28;20055;-55
2023/08/06 05:30:02;;;;;;;5.65;3.15;;;;;;;;;;5112627;28;20047;-56
2023/08/06 05:32:28;;;;;;;5.07;2.97;;;;;;;;;;5111894;28;20058;-56
2023/08/06 05:34:55;;;;;;;4.75;3.25;;;;;;;;;;5112071;28;20051;-56
2023/08/06 05:37:22;;;;;;;5.18;3.20;;;;;;;;;;5111479;28;20055;-56
2023/08/06 05:39:53;;;;;;;5.82;3.60;;;;;;;;;;5112586;28;20051;-56
2023/08/06 05:42:20;;;;;;;3.47;2.78;;;;;;;;;;5112940;28;20051;-57
2023/08/06 05:44:47;;;;;;;4.80;3.42;;;;;;;;;;5114455;28;20063;-56
2023/08/06 05:47:14;;;;;;;5.50;3.10;;;;;;;;;;5116653;28;20059;-55
2023/08/06 05:49:41;;;;;;;3.92;3.10;;;;;;;;;;5116542;28;20058;-55
2023/08/06 05:52:08;;;;;;;3.50;2.75;;;;;;;;;;5115781;27;20452;-56
2023/08/06 05:54:35;;;;;;;4.65;2.67;;;;;;;;;;5115575;27;20067;-56
2023/08/06 05:57:03;;;;;;;3.85;2.65;;;;;;;;;;5116842;28;20055;-56
2023/08/06 05:59:30;;;;;;;3.35;2.83;;;;;;;;;;5116560;28;20051;-56
2023/08/06 06:01:59;;;;;;;5.35;3.22;;;;;;;;;;5116499;28;20051;-60
2023/08/06 06:04:25;;;;;;;2.80;2.42;;;;;;;;;;5116619;28;20400;-60
2023/08/06 06:06:52;;;;;;;4.05;2.40;;;;;;;;;;5115709;27;20400;-60
2023/08/06 06:09:19;;;;;;;3.65;2.17;;;;;;;;;;5114269;27;20054;-60
2023/08/06 06:11:47;;;;;;;4.72;2.78;;;;;;;;;;5116554;28;20047;-61
2023/08/06 06:14:15;;;;;;;4.00;2.33;;;;;;;;;;5115833;28;20052;-60
2023/08/06 06:16:42;;;;;;;3.65;2.60;;;;;;;;;;5116214;28;20047;-58
2023/08/06 06:19:09;;;;;;;4.30;2.50;;;;;;;;;;5115462;28;20055;-60
2023/08/06 06:21:36;;;;;;;7.25;2.60;;;;;;;;;;5116421;28;20051;-60
2023/08/06 06:24:02;;;;;;;3.08;2.00;;;;;;;;;;5115132;27;20412;-60
2023/08/06 06:26:29;;;;;;;4.28;1.80;;;;;;;;;;5115931;28;20047;-59
2023/08/06 06:28:56;;;;;;;2.85;1.88;;;;;;;;;;5115492;27;20055;-61
2023/08/06 06:31:24;;;;;;;3.65;2.20;;;;;;;;;;5115021;27;20059;-61
2023/08/06 06:33:53;;;;;;;4.20;2.17;;;;;;;;;;5115364;28;20052;-60
2023/08/06 06:36:20;;;;;;;4.97;1.90;;;;;;;;;;5116289;28;20048;-61
2023/08/06 06:38:47;;;;;;;2.58;1.67;;;;;;;;;;5115521;27;20055;-61
2023/08/06 06:41:14;;;;;;;3.70;1.80;;;;;;;;;;5103871;28;20052;-61
2023/08/06 06:43:41;;;;;;;2.97;1.83;;;;;;;;;;5111014;27;20071;-61
2023/08/06 06:46:08;;;;;;;4.22;1.95;;;;;;;;;;5114863;27;20058;-60
2023/08/06 06:48:36;;;;;;;3.63;1.80;;;;;;;;;;5116799;27;20044;-61
2023/08/06 06:51:03;;;;;;;3.47;1.80;;;;;;;;;;5115081;27;20047;-61
2023/08/06 06:53:30;;;;;;;4.20;1.67;;;;;;;;;;5114311;27;20048;-61
2023/08/06 06:55:57;;;;;;;2.60;1.60;;;;;;;;;;5114935;28;20047;-61
2023/08/06 06:58:24;;;;;;;3.70;1.52;;;;;;;;;;5115416;28;20051;-61
2023/08/06 07:00:51;;;;;;;4.53;1.70;;;;;;;;;;5115585;28;20062;-61
2023/08/06 07:03:18;;;;;;;2.15;1.48;;;;;;;;;;5115388;28;20522;-61
2023/08/06 07:05:46;;;;;;;2.70;1.60;;;;;;;;;;5114542;28;20404;-61
2023/08/06 07:08:13;;;;;;;2.40;1.40;;;;;;;;;;5114836;27;20055;-61
2023/08/06 07:10:41;;;;;;;3.03;1.40;;;;;;;;;;5114670;28;20051;-61
2023/08/06 07:13:08;;;;;;;3.55;1.83;;;;;;;;;;5114857;28;20047;-61
2023/08/06 07:15:35;;;;;;;2.50;1.70;;;;;;;;;;5115129;28;20059;-61
2023/08/06 07:18:02;;;;;;;3.65;1.50;;;;;;;;;;5115174;28;20062;-61
2023/08/06 07:20:31;;;;;;;2.38;1.60;;;;;;;;;;5114998;28;20058;-60
2023/08/06 07:22:59;;;;;;;2.33;1.40;;;;;;;;;;5114116;27;20044;-59
2023/08/06 07:25:26;;;;;;;2.83;1.30;;;;;;;;;;5113229;27;20056;-60
2023/08/06 07:27:53;;;;;;;3.55;1.70;;;;;;;;;;5114976;28;20408;-60
2023/08/06 07:30:20;;;;;;;3.38;1.50;;;;;;;;;;5114725;28;20369;-62
2023/08/06 07:32:49;;;;;;;2.20;1.40;;;;;;;;;;5113939;28;20056;-61
2023/08/06 07:35:16;;;;;;;2.85;1.50;;;;;;;;;;5109763;27;20040;-60
2023/08/06 07:37:42;;;;;;;2.95;1.80;;;;;;;;;;5110249;28;20048;-60
2023/08/06 07:40:11;;;;;;;3.65;1.60;;;;;;;;;;5110688;27;20043;-60
2023/08/06 07:42:38;;;;;;;4.70;1.70;;;;;;;;;;5108580;27;20066;-61
2023/08/06 07:45:05;;;;;;;3.15;1.30;;;;;;;;;;5110802;28;20051;-60
2023/08/06 07:47:34;;;;;;;4.45;1.60;;;;;;;;;;5108091;28;20047;-58
2023/08/06 07:50:01;;;;;;;2.93;1.53;;;;;;;;;;5110656;28;20062;-60
2023/08/06 07:52:29;;;;;;;2.60;1.48;;;;;;;;;;5110243;28;20048;-61
2023/08/06 07:54:56;;;;;;;4.35;1.58;;;;;;;;;;5103854;27;20526;-61
2023/08/06 07:57:24;;;;;;;3.05;1.67;;;;;;;;;;5108606;28;20051;-61
2023/08/06 07:59:54;;;;;;;3.47;1.48;;;;;;;;;;5112086;28;20055;-60
2023/08/06 08:02:21;;;;;;;2.40;1.38;;;;;;;;;;5109234;27;20636;-60
2023/08/06 08:04:48;;;;;;;2.83;1.45;;;;;;;;;;5110831;28;20054;-60
2023/08/06 08:07:15;;;;;;;5.53;1.42;;;;;;;;;;5106908;28;20059;-60
2023/08/06 08:09:44;;;;;;;2.60;1.48;;;;;;;;;;5110036;28;20048;-62
2023/08/06 08:12:11;;;;;;;11.65;2.22;;;;;;;;;;5113142;28;20048;-62
2023/08/06 08:14:41;;;;;;;3.05;1.25;;;;;;;;;;5113831;28;20059;-61
2023/08/06 08:17:11;;;;;;;2.53;1.40;;;;;;;;;;5112787;28;20055;-61
2023/08/06 08:19:37;;;;;;;2.90;1.25;;;;;;;;;;5111582;28;20058;-61
2023/08/06 08:22:07;;;;;;;2.70;1.38;;;;;;;;;;5113948;28;20054;-60
2023/08/06 08:24:34;;;;;;;2.20;1.25;;;;;;;;;;5113850;28;20052;-61
2023/08/06 08:27:03;;;;;;;2.30;1.30;;;;;;;;;;5114035;28;20048;-61
2023/08/06 08:29:30;;;;;;;2.25;1.45;;;;;;;;;;5113917;28;20056;-61
2023/08/06 08:31:58;;;;;;;4.28;1.70;;;;;;;;;;5113053;28;20056;-61
2023/08/06 08:34:25;;;;;;;4.10;1.50;;;;;;;;;;5113459;28;20051;-61
2023/08/06 08:36:52;;;;;;;2.22;1.25;;;;;;;;;;5103816;28;20056;-61
2023/08/06 08:39:22;;;;;;;3.83;1.40;;;;;;;;;;5092235;28;20067;-62
2023/08/06 08:41:48;;;;;;;4.13;1.67;;;;;;;;;;5093113;28;20048;-61
2023/08/06 08:44:17;;;;;;;3.10;1.80;;;;;;;;;;5093304;28;20059;-61
2023/08/06 08:46:45;;;;;;;3.45;2.80;;;;;;;;;;5109045;28;20062;-61
2023/08/06 08:49:13;;;;;;;4.35;2.38;;;;;;;;;;5109289;28;20051;-61
2023/08/06 08:51:40;;;;;;;4.18;2.25;;;;;;;;;;5088815;28;20468;-62
2023/08/06 08:54:08;;;;;;;3.65;2.40;;;;;;;;;;5091133;28;20059;-61
2023/08/06 08:56:35;;;;;;;3.08;2.28;;;;;;;;;;5093429;28;20059;-61
2023/08/06 08:59:02;;;;;;;3.90;2.30;;;;;;;;;;5092755;28;20409;-61
2023/08/06 09:01:29;;;;;;;5.03;2.38;;;;;;;;;;5086372;28;20052;-60
2023/08/06 09:03:57;;;;;;;5.18;2.33;;;;;;;;;;5092954;28;20052;-61
2023/08/06 09:06:26;;;;;;;32.40;2.92;;;;;;;;;;5090793;28;20051;-62
2023/08/06 09:08:57;;;;;;;51.95;6.43;;;;;;;;;;5090723;28;20052;-64
2023/08/06 09:11:24;;;;;;;29.95;6.88;;;;;;;;;;5092708;28;20047;-66
2023/08/06 09:13:51;;;;;;;6.25;3.67;;;;;;;;;;5093863;28;20052;-60
2023/08/06 09:16:18;;;;;;;7.70;4.90;;;;;;;;;;5084013;28;20052;-60
2023/08/06 09:18:44;;;;;;;7.28;5.57;;;;;;;;;;5091824;28;20056;-60
2023/08/06 09:21:14;;;;;;;9.43;7.07;;;;;;;;;;5092332;28;20052;-60
2023/08/06 09:23:43;;;;;;;13.23;8.20;;;;;;;;;;5090140;28;20055;-59
2023/08/06 09:26:12;;;;;;;9.40;6.55;;;;;;;;;;5092426;28;20047;-59
2023/08/06 09:28:39;;;;;;;8.65;5.22;;;;;;;;;;5091310;28;20052;-59
2023/08/06 09:31:06;;;;;;;12.05;8.23;;;;;;;;;;5092324;28;20078;-59
2023/08/06 09:33:33;;;;;;;11.60;7.72;;;;;;;;;;5108538;28;20052;-59
2023/08/06 09:36:07;;;;;;;14.45;9.13;;;;;;;;;;5112950;28;20051;-58
2023/08/06 09:38:38;;;;;;;8.85;6.68;;;;;;;;;;5111683;28;20074;-59
2023/08/06 09:41:07;;;;;;;9.85;7.55;;;;;;;;;;5111785;28;20428;-59
2023/08/06 09:43:40;;;;;;;10.52;8.13;;;;;;;;;;5110316;28;21342;-59
2023/08/06 09:46:11;;;;;;;11.73;8.13;;;;;;;;;;5110491;28;20059;-65
2023/08/06 09:48:38;;;;;;;9.60;6.25;;;;;;;;;;5113809;28;20061;-65
2023/08/06 09:51:06;;;;;;;9.55;6.13;;;;;;;;;;5112491;28;20047;-64
2023/08/06 09:53:34;;;;;;;9.23;7.60;;;;;;;;;;5125075;28;20051;-65
2023/08/06 09:56:01;;;;;;;7.57;6.20;;;;;;;;;;5112193;28;20508;-65
2023/08/06 09:58:31;;;;;;;11.70;7.40;;;;;;;;;;5109002;28;20062;-59
2023/08/06 10:00:57;;;;;;;;;;;;;;;;;;5110030;28;20044;-59
2023/08/06 10:03:24;;;;;;;8.52;5.25;;;;;;;;;;5107465;28;19920;-60
2023/08/06 10:05:51;;;;;;;7.68;6.50;;;;;;;;;;5104874;28;20052;-59
2023/08/06 10:08:18;;;;;;;8.40;7.05;;;;;;;;;;5106823;28;20062;-59
2023/08/06 10:10:45;;;;;;;8.32;6.50;;;;;;;;;;5109547;28;20058;-59
2023/08/06 10:13:13;;;;;;;7.85;6.03;;;;;;;;;;5107262;28;20039;-59
2023/08/06 10:15:42;;;;;;;9.23;6.00;;;;;;;;;;5105977;28;20047;-59
2023/08/06 10:18:09;;;;;;;6.13;5.53;;;;;;;;;;5105368;28;20051;-59
2023/08/06 10:20:36;;;;;;;6.20;5.40;;;;;;;;;;5109488;28;20052;-60
2023/08/06 10:23:03;;;;;;;6.60;6.00;;;;;;;;;;5109221;28;20078;-59
2023/08/06 10:25:31;;;;;;;6.40;5.25;;;;;;;;;;5109940;28;20427;-62
2023/08/06 10:27:58;;;;;;;5.63;4.47;;;;;;;;;;5107637;28;20052;-62
2023/08/06 10:30:26;;;;;;;7.18;5.72;;;;;;;;;;5107554;28;20476;-61
2023/08/06 10:32:56;;;;;;;6.32;4.80;;;;;;;;;;5113696;28;20051;-61
2023/08/06 10:35:35;;;;;;;5.97;5.35;;;;;;;;;;5112379;28;20043;-62
2023/08/06 10:38:05;;;;;;;8.77;5.78;;;;;;;;;;5111775;28;20575;-62
2023/08/06 10:40:33;;;;;;;5.35;4.40;;;;;;;;;;5112274;28;20055;-63
2023/08/06 10:43:00;;;;;;;4.68;3.90;;;;;;;;;;5111834;28;20044;-62
2023/08/06 10:45:28;;;;;;;6.18;5.30;;;;;;;;;;5107021;28;20060;-62
2023/08/06 10:47:57;;;;;;;8.13;7.30;;;;;;;;;;5113703;28;20044;-62
2023/08/06 10:50:24;;;;;;;7.60;6.10;;;;;;;;;;5114201;28;20052;-61
2023/08/06 10:52:51;;;;;;;7.85;7.05;;;;;;;;;;5112067;28;20043;-61
2023/08/06 10:55:24;;;;;;;6.50;5.90;;;;;;;;;;5112342;28;20350;-61
2023/08/06 10:57:51;;;;;;;9.45;8.18;;;;;;;;;;5112403;28;20051;-60
2023/08/06 11:00:18;;;;;;;7.63;6.93;;;;;;;;;;5112834;28;20058;-60
2023/08/06 11:02:47;;;;;;;3.50;2.80;;;;;;;;;;5112755;28;20051;-60
2023/08/06 11:05:15;;;;;;;3.40;3.10;;;;;;;;;;5110953;28;20471;-60
2023/08/06 11:07:42;;;;;;;5.13;4.32;;;;;;;;;;5113856;28;20373;-60
2023/08/06 11:10:10;;;;;;;5.10;3.95;;;;;;;;;;5112012;28;20047;-60
2023/08/06 11:12:37;;;;;;;4.07;3.20;;;;;;;;;;5110591;28;20050;-60
2023/08/06 11:15:04;;;;;;;5.57;4.40;;;;;;;;;;5110666;28;20070;-61
2023/08/06 11:17:32;;;;;;;5.25;4.75;;;;;;;;;;5111981;28;20051;-61
2023/08/06 11:20:00;;;;;;;3.13;2.28;;;;;;;;;;5112219;28;20070;-61
2023/08/06 11:22:28;;;;;;;2.30;1.80;;;;;;;;;;5112652;28;20044;-60
2023/08/06 11:24:55;;;;;;;2.42;2.00;;;;;;;;;;5109481;28;20988;-61
2023/08/06 11:27:22;;;;;;;3.95;2.72;;;;;;;;;;5109315;28;20051;-60
2023/08/06 11:29:49;;;;;;;4.22;3.33;;;;;;;;;;5105926;27;20051;-41
2023/08/06 11:32:16;;;;;;;3.90;3.40;;;;;;;;;;5110649;28;20048;-41
2023/08/06 11:34:44;;;;;;;4.20;3.45;;;;;;;;;;5110483;28;20050;-61
2023/08/06 11:37:11;;;;;;;5.88;4.00;;;;;;;;;;5110042;28;20082;-62
2023/08/06 11:39:39;;;;;;;4.22;3.20;;;;;;;;;;5110466;27;20154;-62
2023/08/06 11:42:07;;;;;;;3.53;2.70;;;;;;;;;;5116199;27;20468;-61
2023/08/06 11:44:35;;;;;;;4.80;2.80;;;;;;;;;;5113113;28;21023;-61
2023/08/06 11:47:03;;;;;;;3.60;2.50;;;;;;;;;;5109111;28;20052;-61
2023/08/06 11:49:40;;;;;;;4.20;3.28;;;;;;;;;;5104149;28;20058;-61
2023/08/06 11:52:11;;;;;;;3.63;2.85;;;;;;;;;;5109327;28;20043;-61
2023/08/06 11:54:39;;;;;;;7.40;2.53;;;;;;;;;;5110566;27;20421;-61
2023/08/06 11:57:07;;;;;;;2.53;2.13;;;;;;;;;;5108114;28;20059;-61
2023/08/06 11:59:34;;;;;;;3.10;2.22;;;;;;;;;;5110036;28;20047;-61
2023/08/06 12:02:01;;;;;;;4.05;2.20;;;;;;;;;;5108373;28;20047;-60
2023/08/06 12:04:28;;;;;;;4.22;2.55;;;;;;;;;;5110008;28;20051;-61
2023/08/06 12:06:54;;;;;;;3.42;2.20;;;;;;;;;;5107965;28;20657;-60
2023/08/06 12:09:21;;;;;;;3.72;2.50;;;;;;;;;;5105328;27;20052;-61
2023/08/06 12:11:49;;;;;;;3.72;2.20;;;;;;;;;;5113178;28;20047;-60
2023/08/06 12:14:16;;;;;;;4.22;2.60;;;;;;;;;;5112347;28;20490;-61
2023/08/06 12:16:43;;;;;;;8.38;3.60;;;;;;;;;;5110458;28;20052;-60
2023/08/06 12:19:10;;;;;;;4.43;3.10;;;;;;;;;;5111151;28;20047;-60
2023/08/06 12:21:36;;;;;;;4.32;3.25;;;;;;;;;;5110146;28;20055;-60
2023/08/06 12:24:03;;;;;;;4.70;3.47;;;;;;;;;;5110187;27;20055;-60
2023/08/06 12:26:30;;;;;;;4.22;3.78;;;;;;;;;;5111444;28;20121;-61
2023/08/06 12:28:58;;;;;;;4.90;3.25;;;;;;;;;;5111890;28;20052;-60
2023/08/06 12:31:25;;;;;;;4.82;3.75;;;;;;;;;;5110552;28;20051;-60
2023/08/06 12:33:52;;;;;;;4.22;3.83;;;;;;;;;;5110531;28;20066;-59
2023/08/06 12:36:19;;;;;;;5.95;4.95;;;;;;;;;;5111713;28;20047;-60
2023/08/06 12:38:47;;;;;;;5.70;5.05;;;;;;;;;;5109475;27;20052;-60
2023/08/06 12:41:13;;;;;;;4.53;4.13;;;;;;;;;;5111765;28;20051;-60
2023/08/06 12:43:40;;;;;;;4.95;3.67;;;;;;;;;;5109430;28;20503;-60
2023/08/06 12:46:08;;;;;;;4.40;3.55;;;;;;;;;;5110691;28;20404;-60
2023/08/06 12:48:35;;;;;;;3.90;3.58;;;;;;;;;;5109460;28;20047;-60
2023/08/06 12:51:02;;;;;;;3.80;3.40;;;;;;;;;;5110022;28;20052;-60
2023/08/06 12:53:29;;;;;;;5.70;5.20;;;;;;;;;;5108331;27;20048;-60
2023/08/06 12:55:55;;;;;;;7.68;6.88;;;;;;;;;;5107946;28;20050;-60
2023/08/06 12:58:22;;;;;;;8.93;8.10;;;;;;;;;;5111547;28;20052;-60
2023/08/06 13:00:49;;;;;;;8.23;7.43;;;;;;;;;;5109732;28;20044;-60
2023/08/06 13:03:17;;;;;;;7.80;6.97;;;;;;;;;;5110101;28;20055;-60
2023/08/06 13:05:45;;;;;;;6.13;5.63;;;;;;;;;;5109235;28;20483;-60
2023/08/06 13:08:11;;;;;;;7.47;6.75;;;;;;;;;;5107393;28;20057;-61
2023/08/06 13:10:38;;;;;;;6.78;5.00;;;;;;;;;;5109396;28;20051;-60
2023/08/06 13:13:05;;;;;;;5.80;4.80;;;;;;;;;;5111068;27;20059;-60
2023/08/06 13:15:32;;;;;;;5.15;4.50;;;;;;;;;;5107767;28;20055;-61
2023/08/06 13:17:59;;;;;;;3.35;3.05;;;;;;;;;;5110007;28;20058;-60
2023/08/06 13:20:27;;;;;;;3.15;2.20;;;;;;;;;;5111227;28;20055;-60
2023/08/06 13:22:53;;;;;;;2.75;2.08;;;;;;;;;;5107086;28;20047;-61
2023/08/06 13:25:20;;;;;;;4.45;1.90;;;;;;;;;;5108757;28;20047;-60
2023/08/06 13:27:47;;;;;;;2.85;1.63;;;;;;;;;;5110049;28;20073;-61
2023/08/06 13:30:14;;;;;;;2.60;1.48;;;;;;;;;;5101063;28;20052;-60
2023/08/06 13:32:41;;;;;;;2.40;1.00;;;;;;;;;;5110141;28;20078;-61
2023/08/06 13:35:08;;;;;;;3.33;0.80;;;;;;;;;;5106295;28;20044;-60
2023/08/06 13:37:36;;;;;;;1.63;0.80;;;;;;;;;;5108503;28;20063;-61
2023/08/06 13:40:03;;;;;;;1.10;0.70;;;;;;;;;;5108325;28;20059;-61
2023/08/06 13:42:32;;;;;;;1.75;0.80;;;;;;;;;;5106776;28;20050;-61
2023/08/06 13:45:02;;;;;;;1.70;0.95;;;;;;;;;;5107467;28;20638;-61
2023/08/06 13:47:29;;;;;;;2.55;0.82;;;;;;;;;;5109102;28;20054;-60
2023/08/06 13:49:56;;;;;;;1.73;0.52;;;;;;;;;;5110685;28;20058;-60
2023/08/06 13:52:23;;;;;;;2.28;0.80;;;;;;;;;;5108145;28;20056;-60
2023/08/06 13:54:51;;;;;;;1.15;0.60;;;;;;;;;;5110573;28;20048;-60
2023/08/06 13:57:18;;;;;;;1.42;0.70;;;;;;;;;;5106664;28;20043;-60
2023/08/06 13:59:45;;;;;;;1.40;0.68;;;;;;;;;;5109542;28;20070;-60
2023/08/06 14:02:11;;;;;;;1.17;0.55;;;;;;;;;;5104189;28;20067;-61
2023/08/06 14:04:39;;;;;;;1.20;0.60;;;;;;;;;;5102046;28;20404;-60
2023/08/06 14:07:06;;;;;;;1.30;0.80;;;;;;;;;;5113829;27;20054;-59
2023/08/06 14:09:34;;;;;;;1.15;0.60;;;;;;;;;;5112255;27;20058;-59
2023/08/06 14:12:02;;;;;;;1.10;0.60;;;;;;;;;;5114261;28;20047;-59
2023/08/06 14:14:29;;;;;;;1.02;0.52;;;;;;;;;;5114597;28;20154;-59
2023/08/06 14:16:56;;;;;;;1.25;0.50;;;;;;;;;;5114674;28;20051;-59
2023/08/06 14:19:23;;;;;;;1.30;0.80;;;;;;;;;;5113825;28;20051;-59
2023/08/06 14:21:50;;;;;;;1.10;0.68;;;;;;;;;;5114520;28;20051;-59
2023/08/06 14:24:17;;;;;;;1.17;0.70;;;;;;;;;;5114926;27;20396;-59
2023/08/06 14:26:44;;;;;;;1.05;0.70;;;;;;;;;;5115136;28;20072;-59
2023/08/06 14:29:13;;;;;;;2.28;0.70;;;;;;;;;;5116535;28;20059;-59
2023/08/06 14:31:40;;;;;;;1.40;0.80;;;;;;;;;;5115885;28;20047;-58
2023/08/06 14:34:07;;;;;;;1.83;0.90;;;;;;;;;;5116795;28;20052;-58
2023/08/06 14:36:34;;;;;;;1.70;0.90;;;;;;;;;;5114814;27;20435;-58
2023/08/06 14:39:00;;;;;;;2.33;1.00;;;;;;;;;;5114600;27;20111;-59
2023/08/06 14:41:27;;;;;;;1.50;1.00;;;;;;;;;;5115912;28;20059;-58
2023/08/06 14:43:54;;;;;;;1.75;1.25;;;;;;;;;;5113055;27;20059;-59